sensor_id;sensor_type;location;lat;lon;timestamp;pressure;altitude;pressure_sealevel;temperature;humidity
37710;BME280;60223;34.854;-92.408;2024-02-23T00:02:08;99430.62;;;25.28;26.88
37710;BME280;60223;34.854;-92.408;2024-02-23T00:04:32;99431.37;;;25.26;26.89
37710;BME280;60223;34.854;-92.408;2024-02-23T00:07:00;99422.94;;;25.25;26.66
37710;BME280;60223;34.854;-92.408;2024-02-23T00:09:25;99423.27;;;25.29;26.62
37710;BME280;60223;34.854;-92.408;2024-02-23T00:11:48;99421.34;;;25.26;26.66
37710;BME280;60223;34.854;-92.408;2024-02-23T00:14:16;99421.57;;;25.59;26.36
37710;BME280;60223;34.854;-92.408;2024-02-23T00:16:42;99423.27;;;25.79;26.13
37710;BME280;60223;34.854;-92.408;2024-02-23T00:19:08;99425.59;;;25.92;26.03
37710;BME280;60223;34.854;-92.408;2024-02-23T00:21:33;99426.52;;;26.67;25.79
37710;BME280;60223;34.854;-92.408;2024-02-23T00:23:59;99430.17;;;26.38;26.10
37710;BME280;60223;34.854;-92.408;2024-02-23T00:26:22;99427.05;;;26.25;26.18
37710;BME280;60223;34.854;-92.408;2024-02-23T00:28:49;99423.52;;;25.45;26.55
37710;BME280;60223;34.854;-92.408;2024-02-23T00:31:15;99435.96;;;25.83;26.47
37710;BME280;60223;34.854;-92.408;2024-02-23T00:33:41;99443.37;;;25.73;26.82
37710;BME280;60223;34.854;-92.408;2024-02-23T00:36:06;99453.50;;;25.69;26.87
37710;BME280;60223;34.854;-92.408;2024-02-23T00:38:32;99457.88;;;25.69;26.90
37710;BME280;60223;34.854;-92.408;2024-02-23T00:40:58;99461.98;;;26.36;26.23
37710;BME280;60223;34.854;-92.408;2024-02-23T00:43:24;99465.30;;;26.71;25.98
37710;BME280;60223;34.854;-92.408;2024-02-23T00:45:47;99475.77;;;26.33;25.88
37710;BME280;60223;34.854;-92.408;2024-02-23T01:07:50;99502.65;;;25.79;26.60
37710;BME280;60223;34.854;-92.408;2024-02-23T01:10:05;99499.67;;;26.44;25.80
37710;BME280;60223;34.854;-92.408;2024-02-23T01:12:31;99502.11;;;26.61;25.87
37710;BME280;60223;34.854;-92.408;2024-02-23T01:14:56;99504.51;;;26.66;26.03
37710;BME280;60223;34.854;-92.408;2024-02-23T01:17:21;99505.21;;;26.33;26.31
37710;BME280;60223;34.854;-92.408;2024-02-23T01:19:47;99513.92;;;26.43;26.23
37710;BME280;60223;34.854;-92.408;2024-02-23T01:22:11;99518.32;;;26.01;26.36
37710;BME280;60223;34.854;-92.408;2024-02-23T01:24:38;99521.39;;;26.21;26.20
37710;BME280;60223;34.854;-92.408;2024-02-23T01:27:04;99524.77;;;25.55;26.60
37710;BME280;60223;34.854;-92.408;2024-02-23T01:29:30;99527.19;;;26.20;25.99
37710;BME280;60223;34.854;-92.408;2024-02-23T01:31:55;99547.88;;;26.07;26.41
37710;BME280;60223;34.854;-92.408;2024-02-23T01:34:20;99561.48;;;26.36;25.97
37710;BME280;60223;34.854;-92.408;2024-02-23T01:36:44;99574.24;;;26.47;26.31
37710;BME280;60223;34.854;-92.408;2024-02-23T01:39:11;99578.62;;;26.07;26.22
37710;BME280;60223;34.854;-92.408;2024-02-23T01:41:37;99581.96;;;26.32;26.43
37710;BME280;60223;34.854;-92.408;2024-02-23T01:44:03;99578.81;;;26.76;26.08
37710;BME280;60223;34.854;-92.408;2024-02-23T01:46:26;99567.41;;;26.27;26.03
37710;BME280;60223;34.854;-92.408;2024-02-23T01:48:54;99564.01;;;25.93;26.61
37710;BME280;60223;34.854;-92.408;2024-02-23T01:51:19;99566.11;;;27.17;25.61
37710;BME280;60223;34.854;-92.408;2024-02-23T01:53:45;99564.47;;;25.83;27.04
37710;BME280;60223;34.854;-92.408;2024-02-23T01:56:11;99559.79;;;25.46;26.99
37710;BME280;60223;34.854;-92.408;2024-02-23T01:58:37;99553.66;;;26.60;26.20
37710;BME280;60223;34.854;-92.408;2024-02-23T02:01:02;99554.77;;;25.92;26.65
37710;BME280;60223;34.854;-92.408;2024-02-23T02:03:27;99550.20;;;25.30;27.35
37710;BME280;60223;34.854;-92.408;2024-02-23T02:05:53;99548.72;;;25.21;27.36
37710;BME280;60223;34.854;-92.408;2024-02-23T02:08:19;99551.92;;;25.48;27.36
37710;BME280;60223;34.854;-92.408;2024-02-23T02:10:44;99556.14;;;25.34;27.22
37710;BME280;60223;34.854;-92.408;2024-02-23T02:13:10;99563.11;;;25.07;27.34
37710;BME280;60223;34.854;-92.408;2024-02-23T02:15:35;99567.65;;;25.75;27.17
37710;BME280;60223;34.854;-92.408;2024-02-23T02:18:01;99571.54;;;25.03;27.61
37710;BME280;60223;34.854;-92.408;2024-02-23T02:20:27;99579.36;;;25.29;27.04
37710;BME280;60223;34.854;-92.408;2024-02-23T02:22:52;99587.60;;;24.83;27.56
37710;BME280;60223;34.854;-92.408;2024-02-23T02:25:18;99588.08;;;25.55;27.31
37710;BME280;60223;34.854;-92.408;2024-02-23T02:27:44;99595.47;;;24.89;27.52
37710;BME280;60223;34.854;-92.408;2024-02-23T02:30:10;99599.57;;;25.02;27.60
37710;BME280;60223;34.854;-92.408;2024-02-23T02:32:35;99603.62;;;24.71;27.71
37710;BME280;60223;34.854;-92.408;2024-02-23T02:35:00;99608.85;;;25.21;27.66
37710;BME280;60223;34.854;-92.408;2024-02-23T02:37:27;99615.48;;;25.41;27.33
37710;BME280;60223;34.854;-92.408;2024-02-23T02:39:51;99614.65;;;25.40;27.37
37710;BME280;60223;34.854;-92.408;2024-02-23T02:42:17;99618.31;;;24.95;27.66
37710;BME280;60223;34.854;-92.408;2024-02-23T02:44:43;99619.93;;;24.91;27.63
37710;BME280;60223;34.854;-92.408;2024-02-23T02:47:06;99622.12;;;25.30;27.54
37710;BME280;60223;34.854;-92.408;2024-02-23T02:49:34;99628.06;;;25.57;27.25
37710;BME280;60223;34.854;-92.408;2024-02-23T02:51:59;99626.64;;;25.37;27.38
37710;BME280;60223;34.854;-92.408;2024-02-23T02:54:25;99628.82;;;25.70;27.12
37710;BME280;60223;34.854;-92.408;2024-02-23T02:56:51;99630.97;;;25.32;27.48
37710;BME280;60223;34.854;-92.408;2024-02-23T02:59:16;99641.09;;;25.32;27.50
37710;BME280;60223;34.854;-92.408;2024-02-23T03:01:40;99645.09;;;25.92;26.91
37710;BME280;60223;34.854;-92.408;2024-02-23T03:04:08;99644.77;;;25.40;27.36
37710;BME280;60223;34.854;-92.408;2024-02-23T03:06:33;99648.70;;;25.39;27.35
37710;BME280;60223;34.854;-92.408;2024-02-23T03:08:59;99649.28;;;25.40;27.33
37710;BME280;60223;34.854;-92.408;2024-02-23T03:11:22;99653.51;;;25.57;27.43
37710;BME280;60223;34.854;-92.408;2024-02-23T03:13:48;99657.08;;;25.19;27.57
37710;BME280;60223;34.854;-92.408;2024-02-23T03:16:17;99661.67;;;25.68;27.30
37710;BME280;60223;34.854;-92.408;2024-02-23T03:18:41;99666.92;;;25.37;27.34
37710;BME280;60223;34.854;-92.408;2024-02-23T03:21:07;99670.96;;;25.27;27.48
37710;BME280;60223;34.854;-92.408;2024-02-23T03:23:32;99677.40;;;25.38;27.33
37710;BME280;60223;34.854;-92.408;2024-02-23T03:25:57;99679.82;;;25.68;26.83
37710;BME280;60223;34.854;-92.408;2024-02-23T03:28:23;99682.42;;;25.31;27.40
37710;BME280;60223;34.854;-92.408;2024-02-23T03:30:48;99691.12;;;25.01;27.65
37710;BME280;60223;34.854;-92.408;2024-02-23T03:33:15;99694.39;;;25.03;27.68
37710;BME280;60223;34.854;-92.408;2024-02-23T03:35:40;99698.61;;;25.44;27.25
37710;BME280;60223;34.854;-92.408;2024-02-23T03:38:06;99696.87;;;25.45;27.20
37710;BME280;60223;34.854;-92.408;2024-02-23T03:40:31;99704.34;;;25.11;27.32
37710;BME280;60223;34.854;-92.408;2024-02-23T03:42:57;99709.99;;;25.82;27.09
37710;BME280;60223;34.854;-92.408;2024-02-23T03:45:23;99713.07;;;25.23;27.43
37710;BME280;60223;34.854;-92.408;2024-02-23T03:47:46;99720.29;;;25.05;27.32
37710;BME280;60223;34.854;-92.408;2024-02-23T03:50:14;99718.88;;;25.91;26.74
37710;BME280;60223;34.854;-92.408;2024-02-23T03:52:40;99719.00;;;26.80;25.77
37710;BME280;60223;34.854;-92.408;2024-02-23T03:55:06;99725.63;;;26.20;26.28
37710;BME280;60223;34.854;-92.408;2024-02-23T03:57:29;99728.88;;;25.96;26.46
37710;BME280;60223;34.854;-92.408;2024-02-23T03:59:56;99729.03;;;27.63;25.02
37710;BME280;60223;34.854;-92.408;2024-02-23T04:02:22;99739.16;;;28.35;24.24
37710;BME280;60223;34.854;-92.408;2024-02-23T04:04:47;99742.69;;;28.73;24.13
37710;BME280;60223;34.854;-92.408;2024-02-23T04:07:13;99746.26;;;28.62;24.01
37710;BME280;60223;34.854;-92.408;2024-02-23T04:09:36;99741.70;;;28.37;24.40
37710;BME280;60223;34.854;-92.408;2024-02-23T04:12:05;99752.02;;;26.79;25.55
37710;BME280;60223;34.854;-92.408;2024-02-23T04:14:30;99758.32;;;26.49;26.05
37710;BME280;60223;34.854;-92.408;2024-02-23T04:16:55;99762.93;;;26.40;26.16
37710;BME280;60223;34.854;-92.408;2024-02-23T04:19:21;99768.02;;;26.06;26.48
37710;BME280;60223;34.854;-92.408;2024-02-23T04:21:47;99771.00;;;25.90;26.40
37710;BME280;60223;34.854;-92.408;2024-02-23T04:24:13;99782.20;;;25.92;26.59
37710;BME280;60223;34.854;-92.408;2024-02-23T04:26:38;99783.54;;;25.88;26.42
37710;BME280;60223;34.854;-92.408;2024-02-23T04:29:04;99787.86;;;26.18;26.39
37710;BME280;60223;34.854;-92.408;2024-02-23T04:31:27;99786.20;;;26.41;26.17
37710;BME280;60223;34.854;-92.408;2024-02-23T04:33:55;99787.33;;;26.33;26.25
37710;BME280;60223;34.854;-92.408;2024-02-23T04:36:20;99792.30;;;26.64;25.95
37710;BME280;60223;34.854;-92.408;2024-02-23T04:38:46;99798.85;;;26.37;26.21
37710;BME280;60223;34.854;-92.408;2024-02-23T04:41:12;99803.06;;;26.51;25.86
37710;BME280;60223;34.854;-92.408;2024-02-23T04:43:37;99807.93;;;26.91;25.91
37710;BME280;60223;34.854;-92.408;2024-02-23T04:46:03;99814.98;;;26.56;26.03
37710;BME280;60223;34.854;-92.408;2024-02-23T04:48:29;99820.46;;;26.83;25.80
37710;BME280;60223;34.854;-92.408;2024-02-23T04:50:54;99823.09;;;25.88;26.64
37710;BME280;60223;34.854;-92.408;2024-02-23T04:53:18;99823.34;;;25.77;26.72
37710;BME280;60223;34.854;-92.408;2024-02-23T04:55:46;99827.68;;;25.76;26.74
37710;BME280;60223;34.854;-92.408;2024-02-23T04:58:11;99831.26;;;25.52;26.77
37710;BME280;60223;34.854;-92.408;2024-02-23T05:00:37;99832.47;;;25.34;27.17
37710;BME280;60223;34.854;-92.408;2024-02-23T05:03:01;99832.66;;;25.56;26.97
37710;BME280;60223;34.854;-92.408;2024-02-23T05:05:28;99839.77;;;25.22;27.35
37710;BME280;60223;34.854;-92.408;2024-02-23T05:07:54;99842.20;;;25.25;27.25
37710;BME280;60223;34.854;-92.408;2024-02-23T05:10:19;99841.62;;;25.42;27.09
37710;BME280;60223;34.854;-92.408;2024-02-23T05:12:45;99839.16;;;25.83;26.68
37710;BME280;60223;34.854;-92.408;2024-02-23T05:15:10;99844.03;;;25.43;27.08
37710;BME280;60223;34.854;-92.408;2024-02-23T05:17:36;99848.62;;;25.03;27.38
37710;BME280;60223;34.854;-92.408;2024-02-23T05:20:02;99849.40;;;25.07;27.37
37710;BME280;60223;34.854;-92.408;2024-02-23T05:22:26;99855.91;;;25.30;27.12
37710;BME280;60223;34.854;-92.408;2024-02-23T05:24:51;99862.41;;;25.22;27.21
37710;BME280;60223;34.854;-92.408;2024-02-23T05:27:18;99861.97;;;25.16;27.24
37710;BME280;60223;34.854;-92.408;2024-02-23T05:29:44;99864.63;;;25.22;27.20
37710;BME280;60223;34.854;-92.408;2024-02-23T05:32:10;99866.06;;;25.42;26.95
37710;BME280;60223;34.854;-92.408;2024-02-23T05:34:34;99870.38;;;25.49;26.89
37710;BME280;60223;34.854;-92.408;2024-02-23T05:37:01;99875.88;;;25.71;26.66
37710;BME280;60223;34.854;-92.408;2024-02-23T05:39:26;99879.38;;;25.94;26.43
37710;BME280;60223;34.854;-92.408;2024-02-23T05:41:52;99881.40;;;26.40;25.95
37710;BME280;60223;34.854;-92.408;2024-02-23T05:44:18;99884.71;;;26.31;25.91
37710;BME280;60223;34.854;-92.408;2024-02-23T05:46:43;99885.43;;;26.16;25.94
37710;BME280;60223;34.854;-92.408;2024-02-23T05:49:09;99882.55;;;27.64;24.74
37710;BME280;60223;34.854;-92.408;2024-02-23T05:51:35;99880.95;;;28.28;24.26
37710;BME280;60223;34.854;-92.408;2024-02-23T05:54:01;99880.76;;;28.35;23.94
37710;BME280;60223;34.854;-92.408;2024-02-23T05:56:26;99882.51;;;28.64;23.89
37710;BME280;60223;34.854;-92.408;2024-02-23T05:58:52;99882.30;;;27.16;25.16
37710;BME280;60223;34.854;-92.408;2024-02-23T06:01:17;99884.24;;;26.21;26.07
37710;BME280;60223;34.854;-92.408;2024-02-23T06:03:42;99887.60;;;26.06;26.20
37710;BME280;60223;34.854;-92.408;2024-02-23T06:06:10;99893.47;;;26.00;26.28
37710;BME280;60223;34.854;-92.408;2024-02-23T06:08:35;99896.20;;;26.15;26.12
37710;BME280;60223;34.854;-92.408;2024-02-23T06:11:00;99898.06;;;26.27;26.00
37710;BME280;60223;34.854;-92.408;2024-02-23T06:13:24;99899.83;;;26.30;25.99
37710;BME280;60223;34.854;-92.408;2024-02-23T06:15:51;99903.27;;;26.56;25.71
37710;BME280;60223;34.854;-92.408;2024-02-23T06:18:17;99907.29;;;26.82;25.31
37710;BME280;60223;34.854;-92.408;2024-02-23T06:20:42;99907.27;;;27.31;25.04
37710;BME280;60223;34.854;-92.408;2024-02-23T06:23:06;99911.28;;;27.24;25.07
37710;BME280;60223;34.854;-92.408;2024-02-23T06:25:33;99910.27;;;27.67;24.69
37710;BME280;60223;34.854;-92.408;2024-02-23T06:27:59;99912.99;;;27.22;25.08
37710;BME280;60223;34.854;-92.408;2024-02-23T06:30:25;99915.16;;;27.49;24.80
37710;BME280;60223;34.854;-92.408;2024-02-23T06:32:49;99913.77;;;26.51;25.72
37710;BME280;60223;34.854;-92.408;2024-02-23T06:35:16;99915.92;;;26.70;25.61
37710;BME280;60223;34.854;-92.408;2024-02-23T06:37:41;99917.74;;;25.63;26.32
37710;BME280;60223;34.854;-92.408;2024-02-23T06:40:08;99921.01;;;25.26;26.96
37710;BME280;60223;34.854;-92.408;2024-02-23T06:42:31;99924.37;;;25.83;26.40
37710;BME280;60223;34.854;-92.408;2024-02-23T06:44:58;99934.09;;;25.16;26.95
37710;BME280;60223;34.854;-92.408;2024-02-23T06:47:24;99936.51;;;25.63;26.56
37710;BME280;60223;34.854;-92.408;2024-02-23T06:49:49;99944.74;;;25.14;26.98
37710;BME280;60223;34.854;-92.408;2024-02-23T06:52:14;99947.82;;;25.22;26.86
37710;BME280;60223;34.854;-92.408;2024-02-23T06:54:41;99949.49;;;27.60;24.62
37710;BME280;60223;34.854;-92.408;2024-02-23T06:57:07;99948.16;;;26.71;25.28
37710;BME280;60223;34.854;-92.408;2024-02-23T06:59:32;99953.36;;;27.18;25.12
37710;BME280;60223;34.854;-92.408;2024-02-23T07:01:56;99953.89;;;28.50;24.05
37710;BME280;60223;34.854;-92.408;2024-02-23T07:04:23;99961.07;;;28.65;23.73
37710;BME280;60223;34.854;-92.408;2024-02-23T07:06:48;99967.14;;;28.63;23.73
37710;BME280;60223;34.854;-92.408;2024-02-23T07:09:14;99972.11;;;27.32;24.87
37710;BME280;60223;34.854;-92.408;2024-02-23T07:11:40;99973.58;;;26.09;25.94
37710;BME280;60223;34.854;-92.408;2024-02-23T07:14:06;99975.56;;;25.91;26.15
37710;BME280;60223;34.854;-92.408;2024-02-23T07:16:31;99982.34;;;26.01;26.09
37710;BME280;60223;34.854;-92.408;2024-02-23T07:18:57;99981.90;;;26.01;26.06
37710;BME280;60223;34.854;-92.408;2024-02-23T07:21:23;99982.14;;;25.95;26.11
37710;BME280;60223;34.854;-92.408;2024-02-23T07:23:46;99982.47;;;26.63;25.51
37710;BME280;60223;34.854;-92.408;2024-02-23T07:26:14;99981.87;;;26.92;25.21
37710;BME280;60223;34.854;-92.408;2024-02-23T07:28:40;99978.37;;;27.16;24.95
37710;BME280;60223;34.854;-92.408;2024-02-23T07:31:05;99980.22;;;27.28;24.64
37710;BME280;60223;34.854;-92.408;2024-02-23T07:33:31;99980.54;;;27.62;24.51
37710;BME280;60223;34.854;-92.408;2024-02-23T07:35:55;99981.99;;;26.81;25.24
37710;BME280;60223;34.854;-92.408;2024-02-23T07:38:22;99980.64;;;27.25;24.83
37710;BME280;60223;34.854;-92.408;2024-02-23T07:40:48;99981.21;;;26.75;25.28
37710;BME280;60223;34.854;-92.408;2024-02-23T07:43:13;99983.35;;;25.91;26.01
37710;BME280;60223;34.854;-92.408;2024-02-23T07:45:39;99992.60;;;25.46;26.43
37710;BME280;60223;34.854;-92.408;2024-02-23T07:48:05;99996.23;;;25.76;26.17
37710;BME280;60223;34.854;-92.408;2024-02-23T07:50:30;99996.20;;;25.99;26.18
37710;BME280;60223;34.854;-92.408;2024-02-23T07:52:55;99998.11;;;26.99;25.11
37710;BME280;60223;34.854;-92.408;2024-02-23T07:55:21;99997.45;;;26.36;25.40
37710;BME280;60223;34.854;-92.408;2024-02-23T07:57:47;99999.00;;;28.07;24.18
37710;BME280;60223;34.854;-92.408;2024-02-23T08:00:13;100001.71;;;28.41;23.71
37710;BME280;60223;34.854;-92.408;2024-02-23T08:02:38;100003.90;;;28.68;23.51
37710;BME280;60223;34.854;-92.408;2024-02-23T08:05:04;100004.71;;;27.99;24.08
37710;BME280;60223;34.854;-92.408;2024-02-23T08:07:30;99999.70;;;26.24;25.64
37710;BME280;60223;34.854;-92.408;2024-02-23T08:09:55;100000.73;;;25.90;25.94
37710;BME280;60223;34.854;-92.408;2024-02-23T08:12:19;99999.31;;;25.94;25.95
37710;BME280;60223;34.854;-92.408;2024-02-23T08:14:46;100000.59;;;25.94;25.90
37710;BME280;60223;34.854;-92.408;2024-02-23T08:17:12;100001.68;;;26.69;25.24
37710;BME280;60223;34.854;-92.408;2024-02-23T08:19:37;99999.75;;;26.34;25.52
37710;BME280;60223;34.854;-92.408;2024-02-23T08:22:04;99999.26;;;27.34;24.60
37710;BME280;60223;34.854;-92.408;2024-02-23T08:24:27;99998.93;;;27.39;24.55
37710;BME280;60223;34.854;-92.408;2024-02-23T08:26:55;99997.47;;;27.04;24.88
37710;BME280;60223;34.854;-92.408;2024-02-23T08:29:20;99998.84;;;27.04;24.82
37710;BME280;60223;34.854;-92.408;2024-02-23T08:31:46;100001.07;;;26.16;25.38
37710;BME280;60223;34.854;-92.408;2024-02-23T08:34:13;100003.30;;;26.44;25.38
37710;BME280;60223;34.854;-92.408;2024-02-23T08:36:37;100007.17;;;25.81;25.90
37710;BME280;60223;34.854;-92.408;2024-02-23T08:39:03;100009.29;;;26.08;25.88
37710;BME280;60223;34.854;-92.408;2024-02-23T08:41:28;100006.72;;;26.32;25.49
37710;BME280;60223;34.854;-92.408;2024-02-23T08:43:54;100012.58;;;26.80;24.88
37710;BME280;60223;34.854;-92.408;2024-02-23T08:46:19;100013.45;;;26.38;25.44
37710;BME280;60223;34.854;-92.408;2024-02-23T08:48:46;100016.76;;;27.36;24.36
37710;BME280;60223;34.854;-92.408;2024-02-23T08:51:11;100024.16;;;28.25;23.64
37710;BME280;60223;34.854;-92.408;2024-02-23T08:53:36;100028.74;;;28.55;23.49
37710;BME280;60223;34.854;-92.408;2024-02-23T08:56:01;100032.18;;;28.65;23.38
37710;BME280;60223;34.854;-92.408;2024-02-23T08:58:27;100035.44;;;26.81;24.95
37710;BME280;60223;34.854;-92.408;2024-02-23T09:00:51;100033.37;;;25.91;25.75
37710;BME280;60223;34.854;-92.408;2024-02-23T09:03:19;100030.91;;;25.85;25.84
37710;BME280;60223;34.854;-92.408;2024-02-23T09:05:44;100032.25;;;25.99;25.68
37710;BME280;60223;34.854;-92.408;2024-02-23T09:08:10;100035.62;;;25.83;25.82
37710;BME280;60223;34.854;-92.408;2024-02-23T09:10:34;100037.56;;;26.04;25.63
37710;BME280;60223;34.854;-92.408;2024-02-23T09:13:01;100032.92;;;26.61;25.10
37710;BME280;60223;34.854;-92.408;2024-02-23T09:15:26;100035.64;;;26.98;24.76
37710;BME280;60223;34.854;-92.408;2024-02-23T09:17:52;100036.88;;;27.21;24.51
37710;BME280;60223;34.854;-92.408;2024-02-23T09:20:16;100037.86;;;26.89;24.60
37710;BME280;60223;34.854;-92.408;2024-02-23T09:22:43;100039.58;;;27.05;24.64
37710;BME280;60223;34.854;-92.408;2024-02-23T09:25:09;100042.93;;;26.03;25.09
37710;BME280;60223;34.854;-92.408;2024-02-23T09:27:35;100048.18;;;26.09;25.50
37710;BME280;60223;34.854;-92.408;2024-02-23T09:29:58;100042.50;;;26.49;25.06
37710;BME280;60223;34.854;-92.408;2024-02-23T09:32:25;100043.45;;;26.67;24.76
37710;BME280;60223;34.854;-92.408;2024-02-23T09:34:52;100048.92;;;25.99;25.39
37710;BME280;60223;34.854;-92.408;2024-02-23T09:37:17;100048.88;;;28.14;23.55
37710;BME280;60223;34.854;-92.408;2024-02-23T09:39:43;100054.30;;;28.43;23.33
37710;BME280;60223;34.854;-92.408;2024-02-23T09:42:09;100060.45;;;28.53;23.29
37710;BME280;60223;34.854;-92.408;2024-02-23T09:44:36;100058.81;;;28.70;23.21
37710;BME280;60223;34.854;-92.408;2024-02-23T09:47:00;100064.96;;;26.39;25.15
37710;BME280;60223;34.854;-92.408;2024-02-23T09:49:25;100071.69;;;26.34;25.46
37710;BME280;60223;34.854;-92.408;2024-02-23T09:51:51;100073.35;;;25.56;25.71
37710;BME280;60223;34.854;-92.408;2024-02-23T09:54:15;100070.69;;;25.86;25.64
37710;BME280;60223;34.854;-92.408;2024-02-23T09:56:43;100067.75;;;25.83;25.65
37710;BME280;60223;34.854;-92.408;2024-02-23T09:59:08;100064.17;;;26.70;24.87
37710;BME280;60223;34.854;-92.408;2024-02-23T10:01:34;100061.71;;;26.64;24.90
37710;BME280;60223;34.854;-92.408;2024-02-23T10:04:00;100061.56;;;27.34;24.26
37710;BME280;60223;34.854;-92.408;2024-02-23T10:06:25;100063.62;;;26.78;24.73
37710;BME280;60223;34.854;-92.408;2024-02-23T10:08:50;100072.18;;;26.57;24.91
37710;BME280;60223;34.854;-92.408;2024-02-23T10:11:17;100074.29;;;26.36;25.05
37710;BME280;60223;34.854;-92.408;2024-02-23T10:13:41;100073.49;;;26.56;24.90
37710;BME280;60223;34.854;-92.408;2024-02-23T10:16:09;100078.76;;;27.44;24.08
37710;BME280;60223;34.854;-92.408;2024-02-23T10:18:32;100079.57;;;27.11;24.32
37710;BME280;60223;34.854;-92.408;2024-02-23T10:20:58;100081.56;;;27.18;24.16
37710;BME280;60223;34.854;-92.408;2024-02-23T10:23:22;100084.46;;;28.56;23.23
37710;BME280;60223;34.854;-92.408;2024-02-23T10:25:49;100088.33;;;28.51;23.17
37710;BME280;60223;34.854;-92.408;2024-02-23T10:28:14;100095.22;;;28.68;23.04
37710;BME280;60223;34.854;-92.408;2024-02-23T10:30:41;100096.47;;;26.85;24.59
37710;BME280;60223;34.854;-92.408;2024-02-23T10:33:08;100099.06;;;26.16;25.25
37710;BME280;60223;34.854;-92.408;2024-02-23T10:35:34;100093.42;;;25.95;25.42
37710;BME280;60223;34.854;-92.408;2024-02-23T10:37:58;100094.73;;;25.92;25.64
37710;BME280;60223;34.854;-92.408;2024-02-23T10:40:24;100101.69;;;25.95;25.40
37710;BME280;60223;34.854;-92.408;2024-02-23T10:42:48;100107.43;;;26.26;25.11
37710;BME280;60223;34.854;-92.408;2024-02-23T10:45:15;100109.93;;;26.70;24.48
37710;BME280;60223;34.854;-92.408;2024-02-23T10:47:40;100111.65;;;27.17;24.27
37710;BME280;60223;34.854;-92.408;2024-02-23T10:50:06;100115.79;;;26.41;24.88
37710;BME280;60223;34.854;-92.408;2024-02-23T10:52:30;100115.01;;;26.25;25.01
37710;BME280;60223;34.854;-92.408;2024-02-23T10:54:57;100116.54;;;26.15;25.10
37710;BME280;60223;34.854;-92.408;2024-02-23T10:57:23;100120.91;;;26.51;24.57
37710;BME280;60223;34.854;-92.408;2024-02-23T10:59:48;100118.26;;;27.24;24.04
37710;BME280;60223;34.854;-92.408;2024-02-23T11:02:14;100121.51;;;27.43;23.85
37710;BME280;60223;34.854;-92.408;2024-02-23T11:04:39;100127.21;;;25.90;25.15
37710;BME280;60223;34.854;-92.408;2024-02-23T11:07:12;100124.88;;;27.93;23.43
37710;BME280;60223;34.854;-92.408;2024-02-23T11:09:29;100126.98;;;28.32;23.10
37710;BME280;60223;34.854;-92.408;2024-02-23T11:11:57;100127.35;;;28.24;23.08
37710;BME280;60223;34.854;-92.408;2024-02-23T11:14:30;100127.84;;;28.59;23.01
37710;BME280;60223;34.854;-92.408;2024-02-23T11:16:47;100130.08;;;27.25;24.13
37710;BME280;60223;34.854;-92.408;2024-02-23T11:19:13;100135.21;;;26.15;25.12
37710;BME280;60223;34.854;-92.408;2024-02-23T11:21:39;100145.30;;;26.08;25.36
37710;BME280;60223;34.854;-92.408;2024-02-23T11:24:06;100156.60;;;25.93;25.48
37710;BME280;60223;34.854;-92.408;2024-02-23T11:26:30;100161.39;;;25.40;25.54
37710;BME280;60223;34.854;-92.408;2024-02-23T11:28:55;100161.83;;;25.76;25.42
37710;BME280;60223;34.854;-92.408;2024-02-23T11:31:24;100163.28;;;26.21;25.04
37710;BME280;60223;34.854;-92.408;2024-02-23T11:33:52;100163.80;;;26.72;24.55
37710;BME280;60223;34.854;-92.408;2024-02-23T11:36:12;100162.66;;;26.49;24.71
37710;BME280;60223;34.854;-92.408;2024-02-23T11:38:35;100162.81;;;27.17;24.11
37710;BME280;60223;34.854;-92.408;2024-02-23T11:41:04;100162.60;;;26.10;25.01
37710;BME280;60223;34.854;-92.408;2024-02-23T11:43:29;100164.70;;;25.65;25.40
37710;BME280;60223;34.854;-92.408;2024-02-23T11:45:55;100169.35;;;25.49;25.57
37710;BME280;60223;34.854;-92.408;2024-02-23T11:48:20;100174.14;;;25.43;25.55
37710;BME280;60223;34.854;-92.408;2024-02-23T11:50:46;100176.24;;;25.53;25.68
37710;BME280;60223;34.854;-92.408;2024-02-23T11:53:12;100172.50;;;25.51;25.24
37710;BME280;60223;34.854;-92.408;2024-02-23T11:55:36;100178.42;;;27.24;23.82
37710;BME280;60223;34.854;-92.408;2024-02-23T11:58:03;100184.33;;;26.16;24.71
37710;BME280;60223;34.854;-92.408;2024-02-23T12:00:28;100182.80;;;26.74;24.29
37710;BME280;60223;34.854;-92.408;2024-02-23T12:02:53;100179.60;;;28.07;23.16
37710;BME280;60223;34.854;-92.408;2024-02-23T12:05:20;100182.10;;;28.31;23.02
37710;BME280;60223;34.854;-92.408;2024-02-23T12:07:44;100186.58;;;28.34;23.03
37710;BME280;60223;34.854;-92.408;2024-02-23T12:10:11;100204.25;;;27.18;24.02
37710;BME280;60223;34.854;-92.408;2024-02-23T12:12:36;100212.91;;;26.23;24.86
37710;BME280;60223;34.854;-92.408;2024-02-23T12:15:05;100221.29;;;25.93;25.14
37710;BME280;60223;34.854;-92.408;2024-02-23T12:17:26;100230.05;;;25.99;25.30
37710;BME280;60223;34.854;-92.408;2024-02-23T12:19:57;100232.15;;;25.56;25.45
37710;BME280;60223;34.854;-92.408;2024-02-23T12:22:19;100238.44;;;25.79;25.23
37710;BME280;60223;34.854;-92.408;2024-02-23T12:24:45;100237.93;;;26.32;24.76
37710;BME280;60223;34.854;-92.408;2024-02-23T12:27:08;100237.43;;;26.76;24.53
37710;BME280;60223;34.854;-92.408;2024-02-23T12:29:36;100236.45;;;26.45;24.60
37710;BME280;60223;34.854;-92.408;2024-02-23T12:32:08;100239.95;;;26.27;24.73
37710;BME280;60223;34.854;-92.408;2024-02-23T12:34:28;100243.87;;;25.40;25.51
37710;BME280;60223;34.854;-92.408;2024-02-23T12:36:53;100254.16;;;25.85;25.05
37710;BME280;60223;34.854;-92.408;2024-02-23T12:39:17;100264.62;;;27.36;23.70
37710;BME280;60223;34.854;-92.408;2024-02-23T12:41:44;100267.62;;;28.14;23.05
37710;BME280;60223;34.854;-92.408;2024-02-23T12:44:11;100261.75;;;28.44;22.91
37710;BME280;60223;34.854;-92.408;2024-02-23T12:46:35;100265.19;;;27.48;23.70